createdAt,value
2018-12-03T00:00:30.030Z,993.97
2018-12-03T00:01:38.706Z,993.96
2018-12-03T00:02:47.395Z,993.88
2018-12-03T00:03:56.069Z,993.94
2018-12-03T00:05:04.746Z,993.89
2018-12-03T00:06:13.421Z,993.89
2018-12-03T00:07:22.106Z,993.92
2018-12-03T00:08:30.788Z,993.86
2018-12-03T00:09:39.845Z,993.84
2018-12-03T00:10:48.562Z,993.86
2018-12-03T00:11:57.241Z,993.84
2018-12-03T00:13:06.175Z,993.82
2018-12-03T00:14:14.851Z,993.83
2018-12-03T00:15:23.522Z,993.77
2018-12-03T00:16:32.199Z,993.76
2018-12-03T00:17:40.884Z,993.76
2018-12-03T00:18:49.565Z,993.81
2018-12-03T00:19:58.237Z,993.77
2018-12-03T00:21:06.925Z,993.73
2018-12-03T00:22:15.847Z,993.77
2018-12-03T00:23:24.525Z,993.74
2018-12-03T00:24:33.198Z,993.74
2018-12-03T00:25:42.123Z,993.78
2018-12-03T00:26:50.791Z,993.76
2018-12-03T00:27:59.727Z,993.72
2018-12-03T00:29:08.434Z,993.69
2018-12-03T00:30:17.111Z,993.69
2018-12-03T00:31:25.857Z,993.66
2018-12-03T00:32:34.527Z,993.65
2018-12-03T00:33:43.250Z,993.62
2018-12-03T00:34:51.922Z,993.61
2018-12-03T00:36:00.598Z,993.62
2018-12-03T00:37:09.265Z,993.61
2018-12-03T00:38:18.203Z,993.67
2018-12-03T00:39:26.877Z,993.67
2018-12-03T00:40:35.554Z,993.66
2018-12-03T00:41:44.225Z,993.63
2018-12-03T00:42:52.912Z,993.67
2018-12-03T00:44:01.586Z,993.69
2018-12-03T00:45:10.277Z,993.67
2018-12-03T00:46:18.996Z,993.68
2018-12-03T00:47:27.741Z,993.73
2018-12-03T00:48:36.420Z,993.75
2018-12-03T00:49:45.096Z,993.71
2018-12-03T00:50:53.772Z,993.69
2018-12-03T00:52:02.440Z,993.72
2018-12-03T00:53:11.121Z,993.74
2018-12-03T00:54:19.787Z,993.72
2018-12-03T00:55:28.471Z,993.76
2018-12-03T00:56:37.134Z,993.76
2018-12-03T00:57:45.823Z,993.82
2018-12-03T00:58:54.486Z,993.81
2018-12-03T01:00:03.179Z,993.8
2018-12-03T01:01:11.852Z,993.79
2018-12-03T01:02:20.538Z,993.8
2018-12-03T01:03:29.468Z,993.83
2018-12-03T01:04:38.160Z,993.82
2018-12-03T01:05:46.837Z,993.78
2018-12-03T01:06:55.516Z,993.77
2018-12-03T01:08:04.185Z,993.78
2018-12-03T01:09:12.858Z,993.76
2018-12-03T01:10:21.538Z,993.81
2018-12-03T01:11:30.215Z,993.75
2018-12-03T01:12:38.914Z,993.71
2018-12-03T01:13:47.586Z,993.69
2018-12-03T01:14:56.268Z,993.69
2018-12-03T01:16:04.957Z,993.63
2018-12-03T01:17:13.640Z,993.62
2018-12-03T01:18:22.561Z,993.66
2018-12-03T01:19:31.258Z,993.69
2018-12-03T01:20:39.934Z,993.67
2018-12-03T01:21:48.608Z,993.76
2018-12-03T01:22:57.294Z,993.73
2018-12-03T01:24:06.230Z,993.73
2018-12-03T01:25:14.913Z,993.74
2018-12-03T01:26:23.590Z,993.79
2018-12-03T01:27:32.308Z,993.8
2018-12-03T01:28:40.981Z,993.8
2018-12-03T01:29:49.668Z,993.78
2018-12-03T01:30:58.344Z,993.79
2018-12-03T01:32:07.029Z,993.83
2018-12-03T01:33:15.702Z,993.81
2018-12-03T01:34:24.432Z,993.81
2018-12-03T01:35:33.098Z,993.81
2018-12-03T01:36:41.782Z,993.75
2018-12-03T01:37:50.701Z,993.75
2018-12-03T01:38:59.431Z,993.76
2018-12-03T01:40:08.106Z,993.75
2018-12-03T01:41:16.788Z,993.81
2018-12-03T01:42:25.464Z,993.77
2018-12-03T01:43:34.134Z,993.73
2018-12-03T01:44:42.817Z,993.72
2018-12-03T01:45:51.496Z,993.71
2018-12-03T01:47:00.175Z,993.69
2018-12-03T01:48:08.861Z,993.64
2018-12-03T01:49:17.587Z,993.65
2018-12-03T01:50:26.257Z,993.73
2018-12-03T01:51:34.939Z,993.74
2018-12-03T01:52:43.620Z,993.76
2018-12-03T01:53:52.455Z,993.76
2018-12-03T01:55:01.187Z,993.71
2018-12-03T01:56:09.881Z,993.74
2018-12-03T01:57:18.560Z,993.7
2018-12-03T01:58:27.236Z,993.75
2018-12-03T01:59:35.908Z,993.75
2018-12-03T02:00:44.588Z,993.75
2018-12-03T02:01:53.515Z,993.77
2018-12-03T02:03:02.199Z,993.73
2018-12-03T02:04:10.875Z,993.73
2018-12-03T02:05:19.564Z,993.63
2018-12-03T02:06:28.240Z,993.6
2018-12-03T02:07:36.928Z,993.7
2018-12-03T02:08:45.863Z,993.69
2018-12-03T02:09:54.789Z,993.74
2018-12-03T02:11:03.462Z,993.72
2018-12-03T02:12:12.138Z,993.77
2018-12-03T02:13:20.816Z,993.75
2018-12-03T02:14:29.482Z,993.74
2018-12-03T02:15:38.209Z,993.71
2018-12-03T02:16:46.878Z,993.73
2018-12-03T02:17:55.560Z,993.67
2018-12-03T02:19:04.233Z,993.72
2018-12-03T02:20:12.916Z,993.68
2018-12-03T02:21:21.595Z,993.64
2018-12-03T02:22:30.279Z,993.64
2018-12-03T02:23:38.968Z,993.65
2018-12-03T02:24:47.649Z,993.59
2018-12-03T02:25:56.327Z,993.63
2018-12-03T02:27:04.999Z,993.6
2018-12-03T02:28:13.683Z,993.54
2018-12-03T02:29:22.359Z,993.55
2018-12-03T02:30:31.031Z,993.52
2018-12-03T02:31:39.959Z,993.54
2018-12-03T02:32:48.667Z,993.52
2018-12-03T02:33:57.615Z,993.54
2018-12-03T02:35:06.543Z,993.53
2018-12-03T02:36:15.218Z,993.5
2018-12-03T02:37:23.901Z,993.5
2018-12-03T02:38:32.579Z,993.49
2018-12-03T02:39:41.514Z,993.52
2018-12-03T02:40:50.459Z,993.46
2018-12-03T02:41:59.390Z,993.51
2018-12-03T02:43:08.329Z,993.44
2018-12-03T02:44:16.999Z,993.56
2018-12-03T02:45:25.691Z,993.49
2018-12-03T02:46:34.631Z,993.46
2018-12-03T02:47:43.578Z,993.43
2018-12-03T02:48:52.519Z,993.38
2018-12-03T02:50:01.207Z,993.36
2018-12-03T02:51:09.873Z,993.4
2018-12-03T02:52:18.642Z,993.36
2018-12-03T02:53:27.589Z,993.39
2018-12-03T02:54:36.588Z,993.38
2018-12-03T02:55:45.262Z,993.31
2018-12-03T02:56:53.946Z,993.3
2018-12-03T02:58:02.622Z,993.28
2018-12-03T02:59:11.564Z,993.3
2018-12-03T03:00:20.266Z,993.25
2018-12-03T03:01:29.456Z,993.26
2018-12-03T03:02:38.411Z,993.27
2018-12-03T03:03:47.083Z,993.28
2018-12-03T03:04:55.771Z,993.31
2018-12-03T03:06:04.709Z,993.28
2018-12-03T03:07:13.400Z,993.34
2018-12-03T03:08:22.074Z,993.35
2018-12-03T03:09:30.780Z,993.34
2018-12-03T03:10:39.733Z,993.39
2018-12-03T03:11:48.410Z,993.37
2018-12-03T03:12:57.082Z,993.32
2018-12-03T03:14:05.760Z,993.35
2018-12-03T03:15:14.710Z,993.32
2018-12-03T03:16:23.405Z,993.32
2018-12-03T03:17:32.334Z,993.34
2018-12-03T03:18:41.027Z,993.4
2018-12-03T03:19:49.782Z,993.25
2018-12-03T03:20:58.713Z,993.27
2018-12-03T03:22:07.403Z,993.24
2018-12-03T03:23:16.077Z,993.23
2018-12-03T03:24:24.763Z,993.29
2018-12-03T03:25:33.450Z,993.25
2018-12-03T03:26:42.133Z,993.25
2018-12-03T03:27:50.803Z,993.28
2018-12-03T03:28:59.482Z,993.25
2018-12-03T03:30:08.198Z,993.16
2018-12-03T03:31:17.449Z,993.2
2018-12-03T03:32:26.168Z,993.27
2018-12-03T03:33:37.815Z,993.27
2018-12-03T03:34:47.262Z,993.24
2018-12-03T03:35:55.935Z,993.28
2018-12-03T03:37:04.620Z,993.27
2018-12-03T03:38:13.301Z,993.29
2018-12-03T03:39:21.997Z,993.3
2018-12-03T03:40:30.673Z,993.34
2018-12-03T03:41:39.874Z,993.4
2018-12-03T03:42:48.561Z,993.42
2018-12-03T03:43:58.343Z,993.44
2018-12-03T03:45:07.120Z,993.48
2018-12-03T03:46:15.786Z,993.47
2018-12-03T03:47:24.463Z,993.42
2018-12-03T03:48:33.134Z,993.45
2018-12-03T03:49:41.825Z,993.39
2018-12-03T03:50:50.767Z,993.41
2018-12-03T03:51:59.692Z,993.44
2018-12-03T03:53:08.366Z,993.43
2018-12-03T03:54:17.045Z,993.48
2018-12-03T03:55:32.004Z,993.5
2018-12-03T03:56:40.930Z,993.49
2018-12-03T03:57:49.618Z,993.52
2018-12-03T03:58:58.296Z,993.48
2018-12-03T04:00:06.985Z,993.57
2018-12-03T04:01:15.660Z,993.56
2018-12-03T04:02:24.341Z,993.58
2018-12-03T04:03:33.013Z,993.55
2018-12-03T04:04:41.714Z,993.57
2018-12-03T04:05:50.393Z,993.58
2018-12-03T04:06:59.330Z,993.53
2018-12-03T04:08:08.006Z,993.45
2018-12-03T04:09:16.689Z,993.35
2018-12-03T04:10:25.371Z,993.37
2018-12-03T04:11:34.062Z,993.19
2018-12-03T04:12:42.747Z,993.24
2018-12-03T04:13:51.434Z,993.22
2018-12-03T04:15:00.121Z,993.23
2018-12-03T04:16:08.806Z,993.22
2018-12-03T04:17:17.496Z,993.3
2018-12-03T04:18:26.194Z,993.28
2018-12-03T04:19:34.874Z,993.25
2018-12-03T04:20:43.542Z,993.18
2018-12-03T04:21:52.236Z,993.27
2018-12-03T04:23:00.901Z,993.3
2018-12-03T04:24:09.593Z,993.33
2018-12-03T04:25:18.309Z,993.31
2018-12-03T04:26:27.009Z,993.27
2018-12-03T04:27:35.701Z,993.26
2018-12-03T04:28:44.389Z,993.24
2018-12-03T04:29:53.065Z,993.28
2018-12-03T04:31:01.999Z,993.3
2018-12-03T04:32:10.695Z,993.28
2018-12-03T04:33:19.368Z,993.32
2018-12-03T04:34:28.054Z,993.31
2018-12-03T04:35:37.231Z,993.42
2018-12-03T04:36:45.921Z,993.34
2018-12-03T04:37:54.624Z,993.37
2018-12-03T04:39:03.302Z,993.36
2018-12-03T04:40:12.248Z,993.4
2018-12-03T04:41:20.926Z,993.35
2018-12-03T04:42:29.594Z,993.41
2018-12-03T04:43:38.274Z,993.41
2018-12-03T04:44:46.964Z,993.38
2018-12-03T04:45:55.644Z,993.41
2018-12-03T04:47:04.317Z,993.42
2018-12-03T04:48:13.013Z,993.41
2018-12-03T04:49:21.698Z,993.43
2018-12-03T04:50:30.380Z,993.47
2018-12-03T04:51:39.109Z,993.45
2018-12-03T04:52:47.806Z,993.44
2018-12-03T04:53:56.493Z,993.48
2018-12-03T04:55:05.440Z,993.45
2018-12-03T04:56:14.143Z,993.43
2018-12-03T04:57:23.076Z,993.44
2018-12-03T04:58:31.753Z,993.39
2018-12-03T04:59:40.422Z,993.36
2018-12-03T05:00:49.105Z,993.4
2018-12-03T05:01:57.788Z,993.39
2018-12-03T05:03:06.736Z,993.41
2018-12-03T05:04:15.673Z,993.37
2018-12-03T05:05:24.357Z,993.41
2018-12-03T05:06:33.028Z,993.47
2018-12-03T05:07:41.704Z,993.4
2018-12-03T05:08:50.389Z,993.4
2018-12-03T05:09:59.086Z,993.43
2018-12-03T05:11:08.041Z,993.45
2018-12-03T05:12:16.716Z,993.48
2018-12-03T05:13:25.655Z,993.41
2018-12-03T05:14:34.332Z,993.5
2018-12-03T05:15:43.007Z,993.54
2018-12-03T05:16:51.688Z,993.49
2018-12-03T05:18:00.622Z,993.51
2018-12-03T05:19:09.561Z,993.52
2018-12-03T05:20:18.267Z,993.53
2018-12-03T05:21:27.712Z,993.5
2018-12-03T05:22:36.396Z,993.46
2018-12-03T05:23:46.744Z,993.48
2018-12-03T05:24:55.425Z,993.53
2018-12-03T05:26:04.387Z,993.54
2018-12-03T05:27:13.061Z,993.53
2018-12-03T05:28:21.738Z,993.55
2018-12-03T05:29:30.419Z,993.57
2018-12-03T05:30:39.099Z,993.62
2018-12-03T05:31:47.772Z,993.58
2018-12-03T05:32:56.442Z,993.57
2018-12-03T05:34:05.137Z,993.53
2018-12-03T05:35:13.823Z,993.61
2018-12-03T05:36:22.752Z,993.62
2018-12-03T05:37:31.439Z,993.59
2018-12-03T05:38:40.375Z,993.59
2018-12-03T05:39:49.040Z,993.6
2018-12-03T05:40:57.716Z,993.56
2018-12-03T05:42:06.392Z,993.61
2018-12-03T05:43:15.847Z,993.6
2018-12-03T05:44:24.529Z,993.71
2018-12-03T05:45:33.191Z,993.58
2018-12-03T05:46:41.871Z,993.58
2018-12-03T05:47:50.539Z,993.59
2018-12-03T05:48:59.226Z,993.58
2018-12-03T05:50:07.896Z,993.58
2018-12-03T05:51:16.834Z,993.59
2018-12-03T05:52:25.504Z,993.65
2018-12-03T05:53:34.191Z,993.63
2018-12-03T05:54:42.865Z,993.65
2018-12-03T05:55:51.802Z,993.68
2018-12-03T05:57:00.741Z,993.69
2018-12-03T05:58:09.431Z,993.67
2018-12-03T05:59:18.106Z,993.69
2018-12-03T06:00:26.777Z,993.63
2018-12-03T06:01:35.454Z,993.6
2018-12-03T06:02:44.134Z,993.65
2018-12-03T06:03:52.828Z,993.64
2018-12-03T06:05:01.495Z,993.72
2018-12-03T06:06:10.172Z,993.77
2018-12-03T06:07:18.842Z,993.77
2018-12-03T06:08:27.530Z,993.79
2018-12-03T06:09:36.208Z,993.79
2018-12-03T06:10:44.889Z,993.78
2018-12-03T06:11:53.559Z,993.68
2018-12-03T06:13:02.248Z,993.66
2018-12-03T06:14:10.920Z,993.73
2018-12-03T06:15:19.605Z,993.8
2018-12-03T06:16:28.273Z,993.76
2018-12-03T06:17:36.949Z,993.79
2018-12-03T06:18:45.629Z,993.77
2018-12-03T06:19:54.308Z,993.84
2018-12-03T06:21:02.985Z,993.86
2018-12-03T06:22:11.659Z,993.83
2018-12-03T06:23:20.348Z,993.86
2018-12-03T06:24:29.032Z,993.96
2018-12-03T06:25:37.722Z,993.88
2018-12-03T06:26:46.643Z,993.77
2018-12-03T06:27:55.578Z,993.95
2018-12-03T06:29:04.253Z,993.92
2018-12-03T06:30:12.939Z,993.95
2018-12-03T06:31:21.604Z,994.01
2018-12-03T06:32:30.289Z,994
2018-12-03T06:33:39.218Z,993.98
2018-12-03T06:34:47.895Z,994
2018-12-03T06:35:56.569Z,993.94
2018-12-03T06:37:05.243Z,993.96
2018-12-03T06:38:15.416Z,993.89
2018-12-03T06:39:24.243Z,993.88
2018-12-03T06:40:32.928Z,993.88
2018-12-03T06:41:41.614Z,993.89
2018-12-03T06:42:50.299Z,993.86
2018-12-03T06:43:58.975Z,993.92
2018-12-03T06:45:07.671Z,993.92
2018-12-03T06:46:16.353Z,993.91
2018-12-03T06:47:25.029Z,993.89
2018-12-03T06:48:33.957Z,993.94
2018-12-03T06:49:42.634Z,993.95
2018-12-03T06:50:51.307Z,993.93
2018-12-03T06:52:00.243Z,993.94
2018-12-03T06:53:08.923Z,993.97
2018-12-03T06:54:17.600Z,993.92
2018-12-03T06:55:26.279Z,993.89
2018-12-03T06:56:34.959Z,993.92
2018-12-03T06:57:43.893Z,993.9
2018-12-03T06:58:52.824Z,994.03
2018-12-03T07:00:01.494Z,993.94
2018-12-03T07:01:10.427Z,993.95
2018-12-03T07:02:19.111Z,993.95
2018-12-03T07:03:27.816Z,993.97
2018-12-03T07:04:36.487Z,993.99
2018-12-03T07:05:45.159Z,993.99
2018-12-03T07:06:53.843Z,993.96
2018-12-03T07:08:02.512Z,993.97
2018-12-03T07:09:11.196Z,993.97
2018-12-03T07:10:19.877Z,993.98
2018-12-03T07:11:28.821Z,994
2018-12-03T07:12:37.489Z,994.08
2018-12-03T07:13:46.423Z,994.02
2018-12-03T07:14:55.091Z,994.01
2018-12-03T07:16:03.771Z,993.94
2018-12-03T07:17:12.875Z,994.01
2018-12-03T07:18:21.851Z,994.04
2018-12-03T07:19:30.529Z,994.03
2018-12-03T07:20:39.249Z,994.08
2018-12-03T07:21:47.935Z,994.09
2018-12-03T07:22:56.605Z,994.08
2018-12-03T07:24:05.289Z,994.12
2018-12-03T07:25:13.958Z,994.08
2018-12-03T07:26:22.894Z,994.1
2018-12-03T07:27:31.572Z,994.11
2018-12-03T07:28:40.249Z,994.18
2018-12-03T07:29:52.810Z,994.1
2018-12-03T07:31:01.962Z,994.19
2018-12-03T07:32:10.643Z,994.23
2018-12-03T07:33:19.576Z,994.25
2018-12-03T07:34:28.251Z,994.28
2018-12-03T07:35:36.919Z,994.29
2018-12-03T07:36:45.592Z,994.28
2018-12-03T07:37:54.264Z,994.37
2018-12-03T07:39:03.184Z,994.25
2018-12-03T07:40:11.864Z,994.3
2018-12-03T07:41:20.550Z,994.35
2018-12-03T07:42:29.226Z,994.32
2018-12-03T07:43:37.894Z,994.35
2018-12-03T07:44:46.573Z,994.39
2018-12-03T07:45:55.247Z,994.5
2018-12-03T07:47:03.929Z,994.46
2018-12-03T07:48:12.597Z,994.47
2018-12-03T07:49:21.279Z,994.41
2018-12-03T07:50:29.953Z,994.43
2018-12-03T07:51:38.630Z,994.43
2018-12-03T07:52:47.304Z,994.44
2018-12-03T07:53:55.980Z,994.41
2018-12-03T07:55:04.657Z,994.44
2018-12-03T07:56:13.361Z,994.41
2018-12-03T07:57:22.040Z,994.45
2018-12-03T07:58:30.970Z,994.48
2018-12-03T07:59:39.914Z,994.51
2018-12-03T08:00:48.853Z,994.44
2018-12-03T08:01:57.797Z,994.46
2018-12-03T08:03:06.760Z,994.54
2018-12-03T08:04:15.440Z,994.54
2018-12-03T08:05:24.369Z,994.47
2018-12-03T08:06:33.305Z,994.46
2018-12-03T08:07:41.979Z,994.48
2018-12-03T08:08:50.651Z,994.52
2018-12-03T08:09:59.325Z,994.54
2018-12-03T08:11:07.998Z,994.54
2018-12-03T08:12:16.670Z,994.53
2018-12-03T08:13:25.349Z,994.62
2018-12-03T08:14:34.029Z,994.56
2018-12-03T08:15:42.703Z,994.54
2018-12-03T08:16:51.637Z,994.55
2018-12-03T08:18:00.310Z,994.56
2018-12-03T08:19:08.982Z,994.53
2018-12-03T08:20:17.649Z,994.58
2018-12-03T08:21:26.326Z,994.56
2018-12-03T08:22:35.002Z,994.57
2018-12-03T08:23:43.676Z,994.59
2018-12-03T08:24:52.345Z,994.57
2018-12-03T08:26:01.020Z,994.56
2018-12-03T08:27:09.714Z,994.61
2018-12-03T08:28:18.392Z,994.59
2018-12-03T08:29:27.071Z,994.6
2018-12-03T08:30:35.740Z,994.66
2018-12-03T08:31:44.667Z,994.63
2018-12-03T08:32:53.342Z,994.62
2018-12-03T08:34:02.275Z,994.62
2018-12-03T08:35:10.946Z,994.67
2018-12-03T08:36:19.892Z,994.65
2018-12-03T08:37:28.565Z,994.69
2018-12-03T08:38:37.251Z,994.64
2018-12-03T08:39:45.953Z,994.65
2018-12-03T08:40:54.630Z,994.64
2018-12-03T08:42:03.302Z,994.59
2018-12-03T08:43:11.988Z,994.55
2018-12-03T08:44:20.659Z,994.58
2018-12-03T08:45:29.325Z,994.63
2018-12-03T08:46:37.995Z,994.55
2018-12-03T08:47:46.664Z,994.63
2018-12-03T08:48:55.348Z,994.59
2018-12-03T08:50:04.025Z,994.62
2018-12-03T08:51:12.700Z,994.61
2018-12-03T08:52:21.361Z,994.63
2018-12-03T08:53:30.044Z,994.69
2018-12-03T08:54:38.713Z,994.68
2018-12-03T08:55:47.658Z,994.73
2018-12-03T08:56:56.367Z,994.71
2018-12-03T08:58:05.047Z,994.72
2018-12-03T08:59:13.721Z,994.74
2018-12-03T09:00:22.398Z,994.69
2018-12-03T09:01:31.087Z,994.74
2018-12-03T09:02:39.768Z,994.8
2018-12-03T09:03:48.715Z,994.74
2018-12-03T09:04:57.442Z,994.78
2018-12-03T09:06:06.123Z,994.79
2018-12-03T09:07:14.787Z,994.83
2018-12-03T09:08:23.724Z,994.8
2018-12-03T09:09:32.407Z,994.84
2018-12-03T09:10:41.095Z,994.79
2018-12-03T09:11:49.760Z,994.79
2018-12-03T09:12:58.446Z,994.79
2018-12-03T09:14:07.117Z,994.88
2018-12-03T09:15:15.807Z,994.8
2018-12-03T09:16:24.474Z,994.81
2018-12-03T09:17:33.150Z,994.8
2018-12-03T09:18:41.834Z,994.89
2018-12-03T09:19:50.530Z,994.88
2018-12-03T09:20:59.210Z,994.85
2018-12-03T09:22:07.930Z,994.84
2018-12-03T09:23:16.653Z,994.82
2018-12-03T09:24:25.327Z,994.79
2018-12-03T09:25:34.018Z,994.82
2018-12-03T09:26:42.745Z,994.81
2018-12-03T09:27:51.419Z,994.83
2018-12-03T09:29:00.089Z,994.84
2018-12-03T09:30:08.778Z,994.87
2018-12-03T09:31:17.447Z,994.89
2018-12-03T09:32:26.385Z,994.82
2018-12-03T09:33:35.054Z,994.84
2018-12-03T09:34:43.737Z,994.78
2018-12-03T09:35:52.410Z,994.77
2018-12-03T09:37:01.090Z,994.8
2018-12-03T09:38:10.032Z,994.91
2018-12-03T09:39:18.710Z,994.88
2018-12-03T09:40:27.387Z,994.87
2018-12-03T09:41:36.065Z,994.91
2018-12-03T09:42:44.747Z,994.93
2018-12-03T09:43:53.465Z,995.02
2018-12-03T09:45:02.173Z,994.98
2018-12-03T09:46:10.857Z,994.98
2018-12-03T09:47:19.541Z,995.01
2018-12-03T09:48:28.218Z,995.03
2018-12-03T09:49:36.898Z,995.03
2018-12-03T09:50:45.570Z,995.06
2018-12-03T09:51:54.255Z,995.06
2018-12-03T09:53:02.931Z,995.03
2018-12-03T09:54:11.611Z,995.02
2018-12-03T09:55:20.283Z,995.02
2018-12-03T09:56:28.981Z,995
2018-12-03T09:57:37.681Z,994.98
2018-12-03T09:58:46.607Z,994.98
2018-12-03T09:59:55.340Z,995.01
2018-12-03T10:01:04.036Z,995.02
2018-12-03T10:02:12.722Z,994.99
2018-12-03T10:03:21.651Z,995
2018-12-03T10:04:30.333Z,995.03
2018-12-03T10:05:39.267Z,995.07
2018-12-03T10:06:47.945Z,994.99
2018-12-03T10:07:56.622Z,995.03
2018-12-03T10:09:05.302Z,995.02
2018-12-03T10:10:13.982Z,995
2018-12-03T10:11:22.924Z,994.96
2018-12-03T10:12:31.676Z,994.95
2018-12-03T10:13:40.626Z,994.94
2018-12-03T10:14:49.304Z,994.98
2018-12-03T10:15:58.234Z,994.96
2018-12-03T10:17:06.904Z,994.94
2018-12-03T10:18:15.833Z,994.93
2018-12-03T10:19:24.512Z,994.96
2018-12-03T10:20:33.188Z,994.86
2018-12-03T10:21:46.744Z,994.96
2018-12-03T10:22:55.895Z,994.9
2018-12-03T10:24:04.832Z,994.91
2018-12-03T10:25:13.508Z,994.91
2018-12-03T10:26:22.488Z,994.9
2018-12-03T10:27:31.161Z,994.87
2018-12-03T10:28:39.844Z,994.83
2018-12-03T10:29:48.523Z,994.85
2018-12-03T10:30:57.201Z,994.85
2018-12-03T10:32:06.143Z,994.84
2018-12-03T10:33:15.089Z,994.81
2018-12-03T10:34:23.777Z,994.81
2018-12-03T10:35:32.707Z,994.79
2018-12-03T10:36:41.384Z,994.78
2018-12-03T10:37:50.054Z,994.75
2018-12-03T10:38:58.737Z,994.85
2018-12-03T10:40:07.405Z,994.84
2018-12-03T10:41:16.087Z,994.77
2018-12-03T10:42:24.751Z,994.81
2018-12-03T10:43:33.444Z,994.75
2018-12-03T10:44:42.120Z,994.78
2018-12-03T10:45:50.814Z,994.75
2018-12-03T10:46:59.487Z,994.78
2018-12-03T10:48:08.170Z,994.78
2018-12-03T10:49:16.844Z,994.78
2018-12-03T10:50:25.527Z,994.77
2018-12-03T10:51:34.191Z,994.78
2018-12-03T10:52:43.125Z,994.72
2018-12-03T10:53:51.853Z,994.7
2018-12-03T10:55:00.585Z,994.74
2018-12-03T10:56:09.515Z,994.69
2018-12-03T10:57:18.184Z,994.68
2018-12-03T10:58:26.866Z,994.64
2018-12-03T10:59:35.550Z,994.72
2018-12-03T11:00:44.448Z,994.81
2018-12-03T11:01:53.111Z,994.66
2018-12-03T11:03:01.797Z,994.69
2018-12-03T11:04:10.469Z,994.7
2018-12-03T11:05:19.416Z,994.72
2018-12-03T11:06:28.095Z,994.65
2018-12-03T11:07:36.773Z,994.62
2018-12-03T11:08:45.706Z,994.61
2018-12-03T11:09:54.651Z,994.62
2018-12-03T11:11:03.582Z,994.63
2018-12-03T11:12:12.252Z,994.63
2018-12-03T11:13:20.936Z,994.62
2018-12-03T11:14:29.608Z,994.59
2018-12-03T11:15:38.554Z,994.54
2018-12-03T11:16:47.499Z,994.54
2018-12-03T11:17:56.189Z,994.5
2018-12-03T11:19:04.858Z,994.47
2018-12-03T11:20:13.889Z,994.52
2018-12-03T11:21:22.575Z,994.5
2018-12-03T11:22:31.260Z,994.49
2018-12-03T11:23:39.991Z,994.41
2018-12-03T11:24:49.532Z,994.47
2018-12-03T11:25:58.279Z,994.5
2018-12-03T11:27:07.390Z,994.51
2018-12-03T11:28:16.057Z,994.51
2018-12-03T11:29:24.761Z,994.51
2018-12-03T11:30:33.606Z,994.55
2018-12-03T11:31:42.532Z,994.51
2018-12-03T11:32:51.301Z,994.52
2018-12-03T11:34:00.215Z,994.48
2018-12-03T11:35:08.940Z,994.47
2018-12-03T11:36:17.617Z,994.48
2018-12-03T11:37:26.281Z,994.53
2018-12-03T11:38:34.971Z,994.47
2018-12-03T11:39:44.254Z,994.48
2018-12-03T11:40:52.937Z,994.49
2018-12-03T11:42:01.632Z,994.39
2018-12-03T11:43:10.316Z,994.43
2018-12-03T11:44:19.040Z,994.46
2018-12-03T11:45:27.721Z,994.47
2018-12-03T11:46:36.642Z,994.45
2018-12-03T11:47:45.323Z,994.46
2018-12-03T11:48:54.004Z,994.47
2018-12-03T11:50:02.945Z,994.47
2018-12-03T11:51:11.625Z,994.41
2018-12-03T11:52:20.292Z,994.41
2018-12-03T11:53:28.976Z,994.37
2018-12-03T11:54:37.654Z,994.43
2018-12-03T11:55:46.342Z,994.43
2018-12-03T11:56:55.012Z,994.36
2018-12-03T11:58:03.693Z,994.37
2018-12-03T11:59:12.368Z,994.36
2018-12-03T12:00:21.688Z,994.28
2018-12-03T12:01:30.365Z,994.35
2018-12-03T12:02:39.172Z,994.33
2018-12-03T12:03:48.102Z,994.3
2018-12-03T12:04:56.790Z,994.27
2018-12-03T12:06:05.478Z,994.27
2018-12-03T12:07:14.413Z,994.28
2018-12-03T12:08:23.222Z,994.26
2018-12-03T12:09:31.946Z,994.24
2018-12-03T12:10:40.857Z,994.29
2018-12-03T12:11:49.535Z,994.24
2018-12-03T12:12:58.249Z,994.23
2018-12-03T12:14:06.923Z,994.24
2018-12-03T12:15:16.733Z,994.24
2018-12-03T12:16:26.754Z,994.2
2018-12-03T12:17:35.718Z,994.15
2018-12-03T12:18:44.972Z,994.16
2018-12-03T12:19:53.773Z,994.19
2018-12-03T12:21:03.172Z,994.16
2018-12-03T12:22:11.914Z,994.19
2018-12-03T12:23:20.589Z,994.15
2018-12-03T12:24:29.272Z,994.2
2018-12-03T12:25:38.779Z,994.15
2018-12-03T12:26:47.492Z,994.17
2018-12-03T12:27:56.184Z,994.16
2018-12-03T12:29:04.851Z,994.16
2018-12-03T12:30:13.535Z,994.15
2018-12-03T12:31:22.473Z,994.07
2018-12-03T12:32:31.156Z,994.09
2018-12-03T12:33:39.829Z,994.15
2018-12-03T12:34:48.522Z,994.09
2018-12-03T12:35:57.196Z,994.08
2018-12-03T12:37:05.883Z,994.05
2018-12-03T12:38:14.564Z,994.02
2018-12-03T12:39:23.245Z,993.94
2018-12-03T12:40:31.922Z,993.95
2018-12-03T12:41:40.855Z,993.94
2018-12-03T12:42:49.529Z,993.95
2018-12-03T12:43:58.205Z,993.92
2018-12-03T12:45:06.883Z,993.91
2018-12-03T12:46:15.558Z,993.94
2018-12-03T12:47:24.241Z,993.93
2018-12-03T12:48:32.919Z,993.88
2018-12-03T12:49:41.600Z,993.91
2018-12-03T12:50:50.793Z,993.89
2018-12-03T12:51:59.487Z,993.86
2018-12-03T12:53:08.163Z,993.9
2018-12-03T12:54:16.845Z,993.89
2018-12-03T12:55:25.520Z,993.85
2018-12-03T12:56:34.203Z,993.85
2018-12-03T12:57:43.126Z,993.77
2018-12-03T12:58:51.805Z,993.81
2018-12-03T13:00:00.481Z,993.77
2018-12-03T13:01:09.159Z,993.78
2018-12-03T13:02:17.842Z,993.8
2018-12-03T13:03:26.527Z,993.78
2018-12-03T13:04:35.456Z,993.74
2018-12-03T13:05:44.129Z,993.74
2018-12-03T13:06:52.809Z,993.76
2018-12-03T13:08:01.485Z,993.79
2018-12-03T13:09:10.169Z,993.77
2018-12-03T13:10:18.859Z,993.76
2018-12-03T13:11:27.795Z,993.71
2018-12-03T13:12:36.474Z,993.73
2018-12-03T13:13:45.158Z,993.66
2018-12-03T13:14:53.840Z,993.7
2018-12-03T13:16:02.516Z,993.74
2018-12-03T13:17:11.496Z,993.74
2018-12-03T13:18:20.184Z,993.68
2018-12-03T13:19:28.858Z,993.66
2018-12-03T13:20:37.533Z,993.65
2018-12-03T13:21:46.208Z,993.67
2018-12-03T13:22:54.885Z,993.69
2018-12-03T13:24:03.827Z,993.68
2018-12-03T13:25:12.558Z,993.61
2018-12-03T13:26:21.236Z,993.58
2018-12-03T13:27:29.911Z,993.54
2018-12-03T13:28:38.601Z,993.53
2018-12-03T13:29:47.276Z,993.54
2018-12-03T13:30:55.953Z,993.6
2018-12-03T13:32:04.631Z,993.57
2018-12-03T13:33:13.365Z,993.55
2018-12-03T13:34:22.474Z,993.56
2018-12-03T13:35:36.745Z,993.51
2018-12-03T13:36:45.468Z,993.51
2018-12-03T13:37:54.155Z,993.5
2018-12-03T13:39:03.143Z,993.51
2018-12-03T13:40:11.828Z,993.51
2018-12-03T13:41:20.772Z,993.53
2018-12-03T13:42:29.463Z,993.53
2018-12-03T13:43:38.142Z,993.51
2018-12-03T13:44:46.819Z,993.49
2018-12-03T13:45:55.504Z,993.45
2018-12-03T13:47:04.179Z,993.5
2018-12-03T13:48:13.117Z,993.44
2018-12-03T13:49:21.802Z,993.42
2018-12-03T13:50:30.487Z,993.42
2018-12-03T13:51:39.422Z,993.41
2018-12-03T13:52:48.096Z,993.4
2018-12-03T13:53:56.769Z,993.39
2018-12-03T13:55:05.707Z,993.4
2018-12-03T13:56:14.379Z,993.44
2018-12-03T13:57:23.051Z,993.45
2018-12-03T13:58:31.729Z,993.46
2018-12-03T13:59:40.401Z,993.47
2018-12-03T14:00:49.342Z,993.43
2018-12-03T14:01:58.023Z,993.45
2018-12-03T14:03:07.467Z,993.41
2018-12-03T14:04:20.527Z,993.4
2018-12-03T14:05:33.010Z,993.45
2018-12-03T14:06:44.842Z,993.44
2018-12-03T14:07:53.528Z,993.41
2018-12-03T14:09:02.200Z,993.41
2018-12-03T14:10:10.887Z,993.45
2018-12-03T14:11:19.813Z,993.47
2018-12-03T14:12:28.496Z,993.48
2018-12-03T14:13:37.178Z,993.52
2018-12-03T14:14:45.863Z,993.49
2018-12-03T14:15:54.538Z,993.49
2018-12-03T14:17:03.470Z,993.55
2018-12-03T14:18:12.177Z,993.53
2018-12-03T14:19:20.847Z,993.48
2018-12-03T14:20:29.525Z,993.5
2018-12-03T14:21:38.205Z,993.54